Latest Coastal Weather Observations for Centre Island

IDD60701

Issued at 6:31 am CST Friday 19 December 2014 (issued every 10 minutes, with the page automatically refreshed every 10 minutes)

About coastal observations | Map of coastal stations | Coastal observations for NT | Marine services | Other Formats
Station Details ID: 014703 Name: CENTRE ISLAND Lat: -15.74 Lon: 136.82 Height: 12.2 m
Data from the previous 72 hours. | See also: Recent months at Centre Island
Date/Time
CST
Temp

°C
Wind Pressure Rain
since 9am
mm
Weather Cloud Vis
km
Sea
Height
m
Swell
Dir
 
Speed
knots
Gust
knots
hPa Trend Height
m
Period
s
Dir
19/06:30am 30.1 N 7 8 1010.1 - 0.0 - - - - - - -
19/06:00am 29.5 N 5 8 1009.5 - 0.0 - - - - - - -
19/05:30am 29.4 N 5 7 1009.2 - 0.0 - - - - - - -
19/05:00am 29.3 N 5 7 1008.9 - 0.0 - - - - - - -
19/04:30am 29.6 N 7 10 1008.6 - 0.0 - - - - - - -
19/04:00am 29.7 N 8 10 1008.5 - 0.0 - - - - - - -
19/03:30am 29.8 N 7 10 1008.3 - 0.0 - - - - - - -
19/03:00am 30.0 NNE 7 9 1008.6 - 0.0 - - - - - - -
19/02:30am 30.0 N 6 8 1008.6 - 0.0 - - - - - - -
19/02:00am 29.9 N 5 7 1008.6 - 0.0 - - - - - - -
19/01:30am 30.0 N 5 7 1008.3 - 0.0 - - - - - - -
19/01:00am 30.2 NNE 5 7 1008.4 - 0.0 - - - - - - -
19/12:30am 30.4 NE 6 9 1008.7 - 0.0 - - - - - - -
19/12:00am 30.5 NE 8 11 1008.9 - 0.0 - - - - - - -
 
Date/Time
CST
Temp

°C
Wind Pressure Rain
since 9am
mm
Weather Cloud Vis
km
Sea
Height
m
Swell
Dir
 
Speed
knots
Gust
knots
hPa Trend Height
m
Period
s
Dir
18/11:30pm 30.7 NE 9 11 1009.6 - 0.0 - - - - - - -
18/11:00pm 30.6 NE 8 11 1009.4 - 0.0 - - - - - - -
18/10:30pm 30.9 NNE 11 13 1009.0 - 0.0 - - - - - - -
18/10:00pm 30.7 NNE 10 13 1008.4 - 0.0 - - - - - - -
18/09:30pm 30.8 NNE 11 14 1008.4 - 0.0 - - - - - - -
18/09:00pm 30.8 NNE 13 16 1008.0 - 0.0 - - - - - - -
18/08:30pm 30.7 NNE 13 15 1007.5 - 0.0 - - - - - - -
18/08:00pm 30.9 NNE 12 15 1007.5 - 0.0 - - - - - - -
18/07:30pm 31.0 NNE 13 17 1007.0 - 0.0 - - - - - - -
18/07:00pm 31.3 NNE 13 16 1006.9 - 0.0 - - - - - - -
18/06:30pm 31.7 NNE 13 17 1006.6 - 0.0 - - - - - - -
18/06:00pm 32.9 NNE 12 16 1005.9 - 0.0 - - - - - - -
18/05:30pm 34.6 N 10 15 1005.7 - 0.0 - - - - - - -
18/05:00pm 34.8 N 12 15 1005.8 - 0.0 - - - - - - -
18/04:30pm 34.8 N 11 14 1006.0 - 0.0 - - - - - - -
18/04:00pm 35.8 NNE 10 13 1006.2 - 0.0 - - - - - - -
18/03:30pm 35.2 NNE 12 15 1006.6 - 0.0 - - - - - - -
18/03:00pm 35.4 NNE 11 14 1006.8 - 0.0 - - - - - - -
18/02:30pm 36.6 NNW 9 13 1007.3 - 0.0 - - - - - - -
18/02:00pm 36.2 NNW 10 15 1007.7 - 0.0 - - - - - - -
18/01:30pm 36.7 NNW 9 13 1008.0 - 0.0 - - - - - - -
18/01:00pm 36.9 NNW 9 13 1008.3 - 0.0 - - - - - - -
18/12:30pm 35.7 NNW 10 14 1008.8 - 0.0 - - - - - - -
18/12:00pm 35.7 N 9 15 1009.0 - 0.0 - - - - - - -
18/11:30am 35.7 NNW 8 13 1009.1 - 0.0 - - - - - - -
18/11:00am 36.6 NNW 9 15 1009.3 - 0.0 - - - - - - -
18/10:30am 35.7 NNW 9 13 1009.6 - 0.0 - - - - - - -
18/10:00am 34.7 NNW 9 12 1009.4 - 0.0 - - - - - - -
18/09:30am 33.9 NNW 9 14 1009.6 - 0.0 - - - - - - -
18/09:00am 33.7 NNW 9 12 1009.3 - 0.0 - - - - - - -
18/08:30am 33.2 N 9 14 1009.3 - 0.0 - - - - - - -
18/08:00am 32.2 N 10 14 1009.2 - 0.0 - - - - - - -
18/07:30am 31.5 NNW 11 15 1009.0 - 0.0 - - - - - - -
18/07:00am 30.9 N 12 16 1008.6 - 0.0 - - - - - - -
18/06:30am 30.5 N 11 16 1008.2 - 0.0 - - - - - - -
18/06:00am 29.9 N 10 14 1007.8 - 0.0 - - - - - - -
18/05:30am 29.8 N 11 15 1007.1 - 0.0 - - - - - - -
18/05:00am 29.8 N 10 14 1006.7 - 0.0 - - - - - - -
18/04:30am 29.8 N 9 13 1006.3 - 0.0 - - - - - - -
18/04:00am 29.8 N 8 11 1006.3 - 0.0 - - - - - - -
18/03:30am 29.7 N 9 11 1006.3 - 0.0 - - - - - - -
18/03:00am 29.5 N 7 11 1006.2 - 0.0 - - - - - - -
18/02:30am 29.6 N 9 12 1006.6 - 0.0 - - - - - - -
18/02:00am 29.7 N 10 14 1006.8 - 0.0 - - - - - - -
18/01:30am 29.6 NNW 9 13 1006.9 - 0.0 - - - - - - -
18/01:00am 29.8 N 10 14 1007.2 - 0.0 - - - - - - -
18/12:30am 30.1 N 11 15 1007.4 - 0.0 - - - - - - -
18/12:00am 30.2 N 12 16 1007.8 - 0.0 - - - - - - -
 
Date/Time
CST
Temp

°C
Wind Pressure Rain
since 9am
mm
Weather Cloud Vis
km
Sea
Height
m
Swell
Dir
 
Speed
knots
Gust
knots
hPa Trend Height
m
Period
s
Dir
17/11:30pm 30.4 NNE 14 19 1008.0 - 0.0 - - - - - - -
17/11:00pm 30.4 NNE 13 18 1008.0 - 0.0 - - - - - - -
17/10:30pm 30.6 NE 15 19 1008.0 - 0.0 - - - - - - -
17/10:00pm 30.7 NE 14 18 1007.7 - 0.0 - - - - - - -
17/09:30pm 30.5 NE 14 17 1007.5 - 0.0 - - - - - - -
17/09:00pm 30.5 NE 14 18 1006.9 - 0.0 - - - - - - -
17/08:30pm 30.5 NE 12 15 1006.5 - 0.0 - - - - - - -
17/08:00pm 30.6 NE 12 15 1005.7 - 0.0 - - - - - - -
17/07:30pm 30.5 NNE 11 15 1005.2 - 0.0 - - - - - - -
17/07:00pm 30.7 NNE 11 15 1004.8 - 0.0 - - - - - - -
17/06:30pm 31.1 NNE 11 15 1004.7 - 0.0 - - - - - - -
17/06:00pm 31.9 NE 11 14 1004.6 - 0.0 - - - - - - -
17/05:30pm 32.6 NE 11 14 1004.6 - 0.0 - - - - - - -
17/05:00pm 33.0 NE 11 15 1004.4 - 0.0 - - - - - - -
17/04:30pm 33.0 NE 13 16 1004.5 - 0.0 - - - - - - -
17/04:00pm 33.7 NE 11 14 1004.8 - 0.0 - - - - - - -
17/03:30pm 34.7 NNE 10 14 1004.8 - 0.0 - - - - - - -
17/03:00pm 36.0 NNE 10 13 1005.0 - 0.0 - - - - - - -
17/02:30pm 35.3 N 9 14 1005.4 - 0.0 - - - - - - -
17/02:00pm 35.6 NNW 10 13 1005.8 - 0.0 - - - - - - -
17/01:30pm 36.5 NNW 10 14 1006.2 - 0.0 - - - - - - -
17/01:00pm 36.2 NNW 10 14 1006.4 - 0.0 - - - - - - -
17/12:30pm 35.9 NNW 11 15 1006.7 - 0.0 - - - - - - -
17/12:00pm 35.6 NNW 12 17 1007.1 - 0.0 - - - - - - -
17/11:30am 36.5 NNW 10 16 1007.1 - 0.0 - - - - - - -
17/11:00am 34.7 NNE 9 11 1007.5 - 0.0 - - - - - - -
17/10:30am 35.6 N 8 12 1008.0 - 0.0 - - - - - - -
17/10:00am 34.3 N 8 11 1008.3 - 0.0 - - - - - - -
17/09:30am 33.7 N 7 10 1008.4 - 0.0 - - - - - - -
17/09:00am 33.0 NNW 9 15 1008.4 - 0.0 - - - - - - -
17/08:30am 31.8 NNW 11 17 1008.2 - 0.0 - - - - - - -
17/08:00am 31.4 N 10 15 1007.9 - 0.0 - - - - - - -
17/07:30am 31.3 NNE 10 13 1007.6 - 0.0 - - - - - - -
17/07:00am 30.5 N 10 15 1007.4 - 0.0 - - - - - - -
17/06:30am 29.7 N 7 11 1007.2 - 0.0 - - - - - - -
17/06:00am 28.9 N 7 10 1006.8 - 0.0 - - - - - - -
17/05:30am 29.1 N 9 12 1006.3 - 0.0 - - - - - - -
17/05:00am 28.9 N 8 10 1005.9 - 0.0 - - - - - - -
17/04:30am 28.8 NNW 6 9 1005.5 - 0.0 - - - - - - -
17/04:00am 28.8 NW 5 7 1005.3 - 0.0 - - - - - - -
17/03:30am 29.1 NNW 7 9 1005.3 - 0.0 - - - - - - -
17/03:00am 29.3 NNW 7 10 1005.4 - 0.0 - - - - - - -
17/02:30am 29.4 N 8 11 1005.2 - 0.0 - - - - - - -
17/02:00am 29.5 N 7 11 1005.2 - 0.0 - - - - - - -
17/01:30am 29.8 N 9 13 1005.3 - 0.0 - - - - - - -
17/01:00am 30.2 NNE 10 15 1005.7 - 0.0 - - - - - - -
17/12:30am 30.4 NNE 12 15 1005.9 - 0.0 - - - - - - -
17/12:00am 30.4 NNE 13 17 1005.9 - 0.0 - - - - - - -
 
Date/Time
CST
Temp

°C
Wind Pressure Rain
since 9am
mm
Weather Cloud Vis
km
Sea
Height
m
Swell
Dir
 
Speed
knots
Gust
knots
hPa Trend Height
m
Period
s
Dir
16/11:30pm 30.6 NNE 14 18 1006.3 - 0.0 - - - - - - -
16/11:00pm 30.7 NNE 13 18 1006.5 - 0.0 - - - - - - -
16/10:30pm 30.8 NNE 13 17 1006.3 - 0.0 - - - - - - -
16/10:00pm 30.7 NNE 15 19 1006.1 - 0.0 - - - - - - -
16/09:30pm 30.8 NNE 15 19 1006.1 - 0.0 - - - - - - -
16/09:00pm 30.7 NNE 15 18 1005.8 - 0.0 - - - - - - -
16/08:30pm 30.8 NNE 13 18 1005.5 - 0.0 - - - - - - -
16/08:00pm 30.9 NE 14 18 1005.3 - 0.0 - - - - - - -
16/07:30pm 31.0 NE 14 18 1004.9 - 0.0 - - - - - - -
16/07:00pm 31.1 NE 14 17 1004.7 - 0.0 - - - - - - -
16/06:30pm 31.5 NE 13 17 1004.5 - 0.0 - - - - - - -
16/06:00pm 31.9 NE 15 19 1004.4 - 0.0 - - - - - - -
16/05:30pm 32.6 NE 14 19 1004.2 - 0.0 - - - - - - -
16/05:00pm 32.8 NE 13 18 1004.3 - 0.0 - - - - - - -
16/04:30pm 33.3 NE 13 17 1004.3 - 0.0 - - - - - - -
16/04:00pm 33.9 NE 11 15 1004.4 - 0.0 - - - - - - -
16/03:30pm 34.6 NE 11 14 1004.7 - 0.0 - - - - - - -
16/03:00pm 34.7 NE 11 15 1005.2 - 0.0 - - - - - - -
16/02:30pm 36.5 NNE 8 12 1005.5 - 0.0 - - - - - - -
16/02:00pm 36.7 NNE 9 12 1005.7 - 0.0 - - - - - - -
16/01:30pm 35.6 NNE 11 14 1006.0 - 0.0 - - - - - - -
16/01:00pm 36.0 N 7 11 1006.4 - 0.0 - - - - - - -
16/12:30pm 36.0 N 9 13 1006.9 - 0.0 - - - - - - -
16/12:00pm 36.3 N 9 14 1007.4 - 0.0 - - - - - - -
16/11:30am 36.7 NNW 9 13 1007.8 - 0.0 - - - - - - -
16/11:00am 35.5 NNW 7 11 1008.1 - 0.0 - - - - - - -
16/10:30am 35.4 N 8 13 1008.3 - 0.0 - - - - - - -
16/10:00am 35.4 N 10 13 1008.5 - 0.0 - - - - - - -
16/09:30am 35.2 N 9 12 1008.6 - 0.0 - - - - - - -
16/09:00am 34.0 N 9 13 1008.9 - 0.0 - - - - - - -
16/08:30am 32.3 NNW 9 13 1008.9 - 0.0 - - - - - - -
16/08:00am 32.4 NNW 8 14 1008.7 - 0.0 - - - - - - -
16/07:30am 31.8 NNW 8 13 1008.5 - 0.0 - - - - - - -
16/07:00am 31.4 N 7 11 1008.0 - 0.0 - - - - - - -

Other Formats:

Comma delimited format used in spreadsheet applications
http://www.bom.gov.au/fwo/IDD60701/IDD60701.94248.axf

JavaScript Object Notation format (JSON) in row-major order
http://www.bom.gov.au/fwo/IDD60701/IDD60701.94248.json